sensor_id;sensor_type;location;lat;lon;timestamp;temperature;humidity
17152;DHT22;8691;50.828;4.700;2023-05-16T00:00:09;10.10;99.90
17152;DHT22;8691;50.828;4.700;2023-05-16T00:02:36;10.10;99.90
17152;DHT22;8691;50.828;4.700;2023-05-16T00:05:04;10.10;99.90
17152;DHT22;8691;50.828;4.700;2023-05-16T00:07:31;10.10;99.90
17152;DHT22;8691;50.828;4.700;2023-05-16T00:09:58;10.10;99.90
17152;DHT22;8691;50.828;4.700;2023-05-16T00:12:25;10.10;99.90
17152;DHT22;8691;50.828;4.700;2023-05-16T00:14:52;10.10;99.90
17152;DHT22;8691;50.828;4.700;2023-05-16T00:17:19;10.10;99.90
17152;DHT22;8691;50.828;4.700;2023-05-16T00:19:46;10.00;99.90
17152;DHT22;8691;50.828;4.700;2023-05-16T00:22:15;9.80;99.90
17152;DHT22;8691;50.828;4.700;2023-05-16T00:24:42;9.60;99.90
17152;DHT22;8691;50.828;4.700;2023-05-16T00:27:09;9.50;99.90
17152;DHT22;8691;50.828;4.700;2023-05-16T00:29:37;9.40;99.90
17152;DHT22;8691;50.828;4.700;2023-05-16T00:32:04;9.30;99.90
17152;DHT22;8691;50.828;4.700;2023-05-16T00:34:31;9.20;99.90
17152;DHT22;8691;50.828;4.700;2023-05-16T00:36:58;9.10;99.90
17152;DHT22;8691;50.828;4.700;2023-05-16T00:39:24;9.00;99.90
17152;DHT22;8691;50.828;4.700;2023-05-16T00:41:52;8.80;99.90
17152;DHT22;8691;50.828;4.700;2023-05-16T00:44:19;8.80;99.90
17152;DHT22;8691;50.828;4.700;2023-05-16T00:46:46;8.80;99.90
17152;DHT22;8691;50.828;4.700;2023-05-16T00:49:12;8.80;99.90
17152;DHT22;8691;50.828;4.700;2023-05-16T00:51:39;8.70;99.90
17152;DHT22;8691;50.828;4.700;2023-05-16T00:54:06;8.70;99.90
17152;DHT22;8691;50.828;4.700;2023-05-16T00:56:33;8.60;99.90
17152;DHT22;8691;50.828;4.700;2023-05-16T00:59:00;8.60;99.90
17152;DHT22;8691;50.828;4.700;2023-05-16T01:01:27;8.50;99.90
17152;DHT22;8691;50.828;4.700;2023-05-16T01:03:54;8.50;99.90
17152;DHT22;8691;50.828;4.700;2023-05-16T01:06:24;8.50;99.90
17152;DHT22;8691;50.828;4.700;2023-05-16T01:08:51;8.40;99.90
17152;DHT22;8691;50.828;4.700;2023-05-16T01:11:35;8.40;99.90
17152;DHT22;8691;50.828;4.700;2023-05-16T01:14:44;8.40;99.90
17152;DHT22;8691;50.828;4.700;2023-05-16T01:19:06;8.30;99.90
17152;DHT22;8691;50.828;4.700;2023-05-16T01:21:38;8.30;99.90
17152;DHT22;8691;50.828;4.700;2023-05-16T01:24:12;8.30;99.90
17152;DHT22;8691;50.828;4.700;2023-05-16T01:26:35;8.20;99.90
17152;DHT22;8691;50.828;4.700;2023-05-16T01:29:02;8.20;99.90
17152;DHT22;8691;50.828;4.700;2023-05-16T01:31:29;8.20;99.90
17152;DHT22;8691;50.828;4.700;2023-05-16T01:33:56;8.20;99.90
17152;DHT22;8691;50.828;4.700;2023-05-16T01:36:36;8.20;99.90
17152;DHT22;8691;50.828;4.700;2023-05-16T01:39:06;8.20;99.90
17152;DHT22;8691;50.828;4.700;2023-05-16T01:41:54;8.10;99.90
17152;DHT22;8691;50.828;4.700;2023-05-16T01:44:22;8.10;99.90
17152;DHT22;8691;50.828;4.700;2023-05-16T01:46:46;8.00;99.90
17152;DHT22;8691;50.828;4.700;2023-05-16T01:49:15;7.90;99.90
17152;DHT22;8691;50.828;4.700;2023-05-16T01:51:42;7.90;99.90
17152;DHT22;8691;50.828;4.700;2023-05-16T01:54:09;7.90;99.90
17152;DHT22;8691;50.828;4.700;2023-05-16T01:56:35;7.90;99.90
17152;DHT22;8691;50.828;4.700;2023-05-16T01:59:02;7.80;99.90
17152;DHT22;8691;50.828;4.700;2023-05-16T02:01:29;7.80;99.90
17152;DHT22;8691;50.828;4.700;2023-05-16T02:03:57;7.80;99.90
17152;DHT22;8691;50.828;4.700;2023-05-16T02:06:22;7.80;99.90
17152;DHT22;8691;50.828;4.700;2023-05-16T02:08:49;7.70;99.90
17152;DHT22;8691;50.828;4.700;2023-05-16T02:11:16;7.70;99.90
17152;DHT22;8691;50.828;4.700;2023-05-16T02:13:44;7.60;99.90
17152;DHT22;8691;50.828;4.700;2023-05-16T02:16:11;7.60;99.90
17152;DHT22;8691;50.828;4.700;2023-05-16T02:18:37;7.60;99.90
17152;DHT22;8691;50.828;4.700;2023-05-16T02:21:04;7.60;99.90
17152;DHT22;8691;50.828;4.700;2023-05-16T02:23:31;7.50;99.90
17152;DHT22;8691;50.828;4.700;2023-05-16T02:25:58;7.50;99.90
17152;DHT22;8691;50.828;4.700;2023-05-16T02:28:25;7.50;99.90
17152;DHT22;8691;50.828;4.700;2023-05-16T02:30:58;7.50;99.90
17152;DHT22;8691;50.828;4.700;2023-05-16T02:33:25;7.40;99.90
17152;DHT22;8691;50.828;4.700;2023-05-16T02:35:51;7.50;99.90
17152;DHT22;8691;50.828;4.700;2023-05-16T02:38:18;7.40;99.90
17152;DHT22;8691;50.828;4.700;2023-05-16T02:40:45;7.30;99.90
17152;DHT22;8691;50.828;4.700;2023-05-16T02:43:12;7.30;99.90
17152;DHT22;8691;50.828;4.700;2023-05-16T02:45:39;7.30;99.90
17152;DHT22;8691;50.828;4.700;2023-05-16T02:48:06;7.30;99.90
17152;DHT22;8691;50.828;4.700;2023-05-16T02:50:33;7.30;99.90
17152;DHT22;8691;50.828;4.700;2023-05-16T02:53:00;7.30;99.90
17152;DHT22;8691;50.828;4.700;2023-05-16T02:55:27;7.30;99.90
17152;DHT22;8691;50.828;4.700;2023-05-16T02:57:53;7.20;99.90
17152;DHT22;8691;50.828;4.700;2023-05-16T03:00:20;7.20;99.90
17152;DHT22;8691;50.828;4.700;2023-05-16T03:02:47;7.10;99.90
17152;DHT22;8691;50.828;4.700;2023-05-16T03:05:14;7.10;99.90
17152;DHT22;8691;50.828;4.700;2023-05-16T03:07:42;7.00;99.90
17152;DHT22;8691;50.828;4.700;2023-05-16T03:10:09;7.00;99.90
17152;DHT22;8691;50.828;4.700;2023-05-16T03:12:36;7.00;99.90
17152;DHT22;8691;50.828;4.700;2023-05-16T03:15:03;7.00;99.90
17152;DHT22;8691;50.828;4.700;2023-05-16T03:17:29;7.00;99.90
17152;DHT22;8691;50.828;4.700;2023-05-16T03:19:56;7.00;99.90
17152;DHT22;8691;50.828;4.700;2023-05-16T03:22:24;6.90;99.90
17152;DHT22;8691;50.828;4.700;2023-05-16T03:24:51;6.90;99.90
17152;DHT22;8691;50.828;4.700;2023-05-16T03:27:18;6.90;99.90
17152;DHT22;8691;50.828;4.700;2023-05-16T03:29:45;6.90;99.90
17152;DHT22;8691;50.828;4.700;2023-05-16T03:32:12;6.90;99.90
17152;DHT22;8691;50.828;4.700;2023-05-16T03:34:39;6.80;99.90
17152;DHT22;8691;50.828;4.700;2023-05-16T03:37:05;6.80;99.90
17152;DHT22;8691;50.828;4.700;2023-05-16T03:39:32;6.80;99.90
17152;DHT22;8691;50.828;4.700;2023-05-16T03:41:59;6.80;99.90
17152;DHT22;8691;50.828;4.700;2023-05-16T03:44:27;6.80;99.90
17152;DHT22;8691;50.828;4.700;2023-05-16T03:46:54;6.80;99.90
17152;DHT22;8691;50.828;4.700;2023-05-16T03:49:23;6.80;99.90
17152;DHT22;8691;50.828;4.700;2023-05-16T03:51:47;6.80;99.90
17152;DHT22;8691;50.828;4.700;2023-05-16T03:54:14;6.80;99.90
17152;DHT22;8691;50.828;4.700;2023-05-16T03:56:41;6.80;99.90
17152;DHT22;8691;50.828;4.700;2023-05-16T03:59:08;6.80;99.90
17152;DHT22;8691;50.828;4.700;2023-05-16T04:01:35;6.80;99.90
17152;DHT22;8691;50.828;4.700;2023-05-16T04:04:02;6.90;99.90
17152;DHT22;8691;50.828;4.700;2023-05-16T04:06:28;7.00;99.90
17152;DHT22;8691;50.828;4.700;2023-05-16T04:08:55;7.00;99.90
17152;DHT22;8691;50.828;4.700;2023-05-16T04:11:22;6.90;99.90
17152;DHT22;8691;50.828;4.700;2023-05-16T04:13:49;7.00;99.90
17152;DHT22;8691;50.828;4.700;2023-05-16T04:16:16;7.10;99.90
17152;DHT22;8691;50.828;4.700;2023-05-16T04:18:43;7.10;99.90
17152;DHT22;8691;50.828;4.700;2023-05-16T04:21:09;7.20;99.90
17152;DHT22;8691;50.828;4.700;2023-05-16T04:23:37;7.40;99.90
17152;DHT22;8691;50.828;4.700;2023-05-16T04:26:04;7.40;99.90
17152;DHT22;8691;50.828;4.700;2023-05-16T04:28:31;7.50;99.90
17152;DHT22;8691;50.828;4.700;2023-05-16T04:30:58;7.50;99.90
17152;DHT22;8691;50.828;4.700;2023-05-16T04:33:25;7.60;99.90
17152;DHT22;8691;50.828;4.700;2023-05-16T04:35:52;7.60;99.90
17152;DHT22;8691;50.828;4.700;2023-05-16T04:38:18;7.70;99.90
17152;DHT22;8691;50.828;4.700;2023-05-16T04:40:45;7.80;99.90
17152;DHT22;8691;50.828;4.700;2023-05-16T04:43:12;7.90;99.90
17152;DHT22;8691;50.828;4.700;2023-05-16T04:45:39;8.00;99.90
17152;DHT22;8691;50.828;4.700;2023-05-16T04:48:06;8.10;99.90
17152;DHT22;8691;50.828;4.700;2023-05-16T04:50:33;8.10;99.90
17152;DHT22;8691;50.828;4.700;2023-05-16T04:52:59;8.20;99.90
17152;DHT22;8691;50.828;4.700;2023-05-16T04:55:26;8.30;99.90
17152;DHT22;8691;50.828;4.700;2023-05-16T04:57:53;8.40;99.90
17152;DHT22;8691;50.828;4.700;2023-05-16T05:00:20;8.50;99.90
17152;DHT22;8691;50.828;4.700;2023-05-16T05:02:47;8.70;99.90
17152;DHT22;8691;50.828;4.700;2023-05-16T05:05:14;8.80;99.90
17152;DHT22;8691;50.828;4.700;2023-05-16T05:07:42;9.20;99.90
17152;DHT22;8691;50.828;4.700;2023-05-16T05:10:09;9.20;99.90
17152;DHT22;8691;50.828;4.700;2023-05-16T05:12:36;9.30;99.90
17152;DHT22;8691;50.828;4.700;2023-05-16T05:15:03;9.40;99.90
17152;DHT22;8691;50.828;4.700;2023-05-16T05:17:29;9.50;99.90
17152;DHT22;8691;50.828;4.700;2023-05-16T05:19:56;9.60;99.90
17152;DHT22;8691;50.828;4.700;2023-05-16T05:22:23;9.70;99.90
17152;DHT22;8691;50.828;4.700;2023-05-16T05:24:50;9.90;99.90
17152;DHT22;8691;50.828;4.700;2023-05-16T05:27:17;10.00;99.90
17152;DHT22;8691;50.828;4.700;2023-05-16T05:29:44;10.10;99.90
17152;DHT22;8691;50.828;4.700;2023-05-16T05:32:10;10.30;99.90
17152;DHT22;8691;50.828;4.700;2023-05-16T05:34:37;10.60;99.90
17152;DHT22;8691;50.828;4.700;2023-05-16T05:37:04;11.70;99.90
17152;DHT22;8691;50.828;4.700;2023-05-16T05:39:31;13.10;99.90
17152;DHT22;8691;50.828;4.700;2023-05-16T05:41:58;14.60;99.90
17152;DHT22;8691;50.828;4.700;2023-05-16T05:44:25;15.30;99.90
17152;DHT22;8691;50.828;4.700;2023-05-16T05:46:53;17.30;99.90
17152;DHT22;8691;50.828;4.700;2023-05-16T05:49:20;17.20;99.90
17152;DHT22;8691;50.828;4.700;2023-05-16T05:51:47;18.40;99.20
17152;DHT22;8691;50.828;4.700;2023-05-16T05:54:13;18.90;98.00
17152;DHT22;8691;50.828;4.700;2023-05-16T05:56:40;19.50;96.30
17152;DHT22;8691;50.828;4.700;2023-05-16T05:59:07;20.00;95.50
17152;DHT22;8691;50.828;4.700;2023-05-16T06:01:34;20.30;95.60
17152;DHT22;8691;50.828;4.700;2023-05-16T06:04:01;20.60;93.70
17152;DHT22;8691;50.828;4.700;2023-05-16T06:06:28;20.80;93.20
17152;DHT22;8691;50.828;4.700;2023-05-16T06:08:55;21.20;91.40
17152;DHT22;8691;50.828;4.700;2023-05-16T06:11:22;19.80;91.70
17152;DHT22;8691;50.828;4.700;2023-05-16T06:13:50;19.30;93.90
17152;DHT22;8691;50.828;4.700;2023-05-16T06:16:17;19.60;93.20
17152;DHT22;8691;50.828;4.700;2023-05-16T06:18:44;19.60;93.20
17152;DHT22;8691;50.828;4.700;2023-05-16T06:21:11;20.90;92.20
17152;DHT22;8691;50.828;4.700;2023-05-16T06:23:38;20.80;92.10
17152;DHT22;8691;50.828;4.700;2023-05-16T06:26:05;21.80;90.00
17152;DHT22;8691;50.828;4.700;2023-05-16T06:28:32;21.80;88.90
17152;DHT22;8691;50.828;4.700;2023-05-16T06:30:59;21.90;87.40
17152;DHT22;8691;50.828;4.700;2023-05-16T06:33:26;22.00;88.20
17152;DHT22;8691;50.828;4.700;2023-05-16T06:35:53;22.40;85.50
17152;DHT22;8691;50.828;4.700;2023-05-16T06:38:19;22.60;84.50
17152;DHT22;8691;50.828;4.700;2023-05-16T06:40:46;22.70;84.60
17152;DHT22;8691;50.828;4.700;2023-05-16T06:43:13;22.90;80.30
17152;DHT22;8691;50.828;4.700;2023-05-16T06:45:40;22.40;81.00
17152;DHT22;8691;50.828;4.700;2023-05-16T06:48:07;22.10;83.40
17152;DHT22;8691;50.828;4.700;2023-05-16T06:50:34;22.80;82.00
17152;DHT22;8691;50.828;4.700;2023-05-16T06:53:02;23.60;79.40
17152;DHT22;8691;50.828;4.700;2023-05-16T06:55:28;23.50;79.30
17152;DHT22;8691;50.828;4.700;2023-05-16T06:57:55;23.60;79.20
17152;DHT22;8691;50.828;4.700;2023-05-16T07:00:22;23.10;78.70
17152;DHT22;8691;50.828;4.700;2023-05-16T07:02:49;23.20;74.00
17152;DHT22;8691;50.828;4.700;2023-05-16T07:05:16;22.80;76.40
17152;DHT22;8691;50.828;4.700;2023-05-16T07:07:43;21.80;81.10
17152;DHT22;8691;50.828;4.700;2023-05-16T07:10:10;21.80;81.10
17152;DHT22;8691;50.828;4.700;2023-05-16T07:12:39;22.50;80.00
17152;DHT22;8691;50.828;4.700;2023-05-16T07:15:04;22.20;77.50
17152;DHT22;8691;50.828;4.700;2023-05-16T07:17:31;22.20;76.30
17152;DHT22;8691;50.828;4.700;2023-05-16T07:19:58;21.70;76.80
17152;DHT22;8691;50.828;4.700;2023-05-16T07:22:25;21.00;77.20
17152;DHT22;8691;50.828;4.700;2023-05-16T07:24:53;19.90;81.60
17152;DHT22;8691;50.828;4.700;2023-05-16T07:27:21;18.90;82.80
17152;DHT22;8691;50.828;4.700;2023-05-16T07:29:48;18.00;88.20
17152;DHT22;8691;50.828;4.700;2023-05-16T07:32:15;17.90;88.10
17152;DHT22;8691;50.828;4.700;2023-05-16T07:34:42;18.70;90.50
17152;DHT22;8691;50.828;4.700;2023-05-16T07:37:09;20.00;85.60
17152;DHT22;8691;50.828;4.700;2023-05-16T07:39:36;20.40;79.00
17152;DHT22;8691;50.828;4.700;2023-05-16T07:42:03;19.20;84.70
17152;DHT22;8691;50.828;4.700;2023-05-16T07:44:30;18.50;84.40
17152;DHT22;8691;50.828;4.700;2023-05-16T07:46:57;18.60;88.10
17152;DHT22;8691;50.828;4.700;2023-05-16T07:49:24;17.80;88.60
17152;DHT22;8691;50.828;4.700;2023-05-16T07:51:51;17.80;88.60
17152;DHT22;8691;50.828;4.700;2023-05-16T07:54:18;17.60;90.20
17152;DHT22;8691;50.828;4.700;2023-05-16T07:56:45;19.00;86.50
17152;DHT22;8691;50.828;4.700;2023-05-16T07:59:12;19.20;82.60
17152;DHT22;8691;50.828;4.700;2023-05-16T08:01:39;18.30;84.40
17152;DHT22;8691;50.828;4.700;2023-05-16T08:04:06;17.40;89.60
17152;DHT22;8691;50.828;4.700;2023-05-16T08:06:32;16.90;90.80
17152;DHT22;8691;50.828;4.700;2023-05-16T08:08:59;16.90;91.60
17152;DHT22;8691;50.828;4.700;2023-05-16T08:11:26;17.10;91.20
17152;DHT22;8691;50.828;4.700;2023-05-16T08:13:54;17.00;90.10
17152;DHT22;8691;50.828;4.700;2023-05-16T08:16:20;17.00;90.10
17152;DHT22;8691;50.828;4.700;2023-05-16T08:18:47;16.90;90.30
17152;DHT22;8691;50.828;4.700;2023-05-16T08:21:15;16.20;91.20
17152;DHT22;8691;50.828;4.700;2023-05-16T08:23:42;16.10;91.10
17152;DHT22;8691;50.828;4.700;2023-05-16T08:26:09;15.90;92.00
17152;DHT22;8691;50.828;4.700;2023-05-16T08:28:36;15.70;92.80
17152;DHT22;8691;50.828;4.700;2023-05-16T08:31:03;16.30;92.60
17152;DHT22;8691;50.828;4.700;2023-05-16T08:33:30;16.60;92.80
17152;DHT22;8691;50.828;4.700;2023-05-16T08:35:57;18.60;89.20
17152;DHT22;8691;50.828;4.700;2023-05-16T08:38:25;21.50;78.50
17152;DHT22;8691;50.828;4.700;2023-05-16T08:40:52;21.40;77.80
17152;DHT22;8691;50.828;4.700;2023-05-16T08:43:19;22.70;72.30
17152;DHT22;8691;50.828;4.700;2023-05-16T08:45:46;22.70;72.40
17152;DHT22;8691;50.828;4.700;2023-05-16T08:48:13;23.80;65.60
17152;DHT22;8691;50.828;4.700;2023-05-16T08:50:40;23.80;67.20
17152;DHT22;8691;50.828;4.700;2023-05-16T08:53:07;25.00;62.40
17152;DHT22;8691;50.828;4.700;2023-05-16T08:55:35;24.90;58.60
17152;DHT22;8691;50.828;4.700;2023-05-16T08:58:02;24.90;58.70
17152;DHT22;8691;50.828;4.700;2023-05-16T09:00:29;24.90;59.80
17152;DHT22;8691;50.828;4.700;2023-05-16T09:02:55;24.20;59.20
17152;DHT22;8691;50.828;4.700;2023-05-16T09:05:22;23.90;60.60
17152;DHT22;8691;50.828;4.700;2023-05-16T09:07:49;24.40;60.20
17152;DHT22;8691;50.828;4.700;2023-05-16T09:10:16;23.80;61.10
17152;DHT22;8691;50.828;4.700;2023-05-16T09:12:43;22.50;63.80
17152;DHT22;8691;50.828;4.700;2023-05-16T09:15:10;21.10;67.10
17152;DHT22;8691;50.828;4.700;2023-05-16T09:17:38;20.10;73.70
17152;DHT22;8691;50.828;4.700;2023-05-16T09:20:07;19.60;74.60
17152;DHT22;8691;50.828;4.700;2023-05-16T09:22:30;20.00;75.70
17152;DHT22;8691;50.828;4.700;2023-05-16T09:24:58;20.90;75.10
17152;DHT22;8691;50.828;4.700;2023-05-16T09:27:24;22.00;68.00
17152;DHT22;8691;50.828;4.700;2023-05-16T09:29:51;22.10;67.90
17152;DHT22;8691;50.828;4.700;2023-05-16T09:32:18;22.60;67.60
17152;DHT22;8691;50.828;4.700;2023-05-16T09:34:46;24.20;62.00
17152;DHT22;8691;50.828;4.700;2023-05-16T09:37:12;24.80;58.80
17152;DHT22;8691;50.828;4.700;2023-05-16T09:39:39;24.40;60.60
17152;DHT22;8691;50.828;4.700;2023-05-16T09:42:05;24.20;61.20
17152;DHT22;8691;50.828;4.700;2023-05-16T09:44:32;24.30;59.00
17152;DHT22;8691;50.828;4.700;2023-05-16T09:46:59;24.70;58.10
17152;DHT22;8691;50.828;4.700;2023-05-16T09:49:26;25.40;56.20
17152;DHT22;8691;50.828;4.700;2023-05-16T09:51:54;25.60;55.90
17152;DHT22;8691;50.828;4.700;2023-05-16T09:54:30;25.10;59.20
17152;DHT22;8691;50.828;4.700;2023-05-16T09:56:56;25.10;57.60
17152;DHT22;8691;50.828;4.700;2023-05-16T09:59:24;23.80;62.20
17152;DHT22;8691;50.828;4.700;2023-05-16T10:01:51;23.70;62.10
17152;DHT22;8691;50.828;4.700;2023-05-16T10:04:17;24.40;59.30
17152;DHT22;8691;50.828;4.700;2023-05-16T10:06:44;24.10;59.90
17152;DHT22;8691;50.828;4.700;2023-05-16T10:09:11;23.10;62.80
17152;DHT22;8691;50.828;4.700;2023-05-16T10:11:39;22.60;64.00
17152;DHT22;8691;50.828;4.700;2023-05-16T10:14:05;21.30;66.60
17152;DHT22;8691;50.828;4.700;2023-05-16T10:16:32;20.50;68.80
17152;DHT22;8691;50.828;4.700;2023-05-16T10:18:59;19.60;71.50
17152;DHT22;8691;50.828;4.700;2023-05-16T10:21:26;19.20;73.30
17152;DHT22;8691;50.828;4.700;2023-05-16T10:23:52;19.50;73.50
17152;DHT22;8691;50.828;4.700;2023-05-16T10:26:19;20.10;66.30
17152;DHT22;8691;50.828;4.700;2023-05-16T10:28:46;19.80;68.00
17152;DHT22;8691;50.828;4.700;2023-05-16T10:31:14;20.20;67.70
17152;DHT22;8691;50.828;4.700;2023-05-16T10:33:40;20.40;70.40
17152;DHT22;8691;50.828;4.700;2023-05-16T10:36:08;21.80;64.90
17152;DHT22;8691;50.828;4.700;2023-05-16T10:38:35;21.70;64.90
17152;DHT22;8691;50.828;4.700;2023-05-16T10:41:03;22.70;63.60
17152;DHT22;8691;50.828;4.700;2023-05-16T10:43:31;22.80;61.70
17152;DHT22;8691;50.828;4.700;2023-05-16T10:46:05;22.80;61.70
17152;DHT22;8691;50.828;4.700;2023-05-16T10:48:37;22.50;63.20
17152;DHT22;8691;50.828;4.700;2023-05-16T10:51:00;21.70;65.60
17152;DHT22;8691;50.828;4.700;2023-05-16T10:53:30;21.40;63.80
17152;DHT22;8691;50.828;4.700;2023-05-16T11:06:43;20.20;62.70
17152;DHT22;8691;50.828;4.700;2023-05-16T11:27:28;19.30;70.50
17152;DHT22;8691;50.828;4.700;2023-05-16T11:29:57;19.70;68.70
17152;DHT22;8691;50.828;4.700;2023-05-16T11:32:21;20.00;66.90
17152;DHT22;8691;50.828;4.700;2023-05-16T11:34:48;19.80;68.10
17152;DHT22;8691;50.828;4.700;2023-05-16T11:37:15;19.80;67.90
17152;DHT22;8691;50.828;4.700;2023-05-16T11:39:42;20.10;65.80
17152;DHT22;8691;50.828;4.700;2023-05-16T11:42:09;19.70;64.30
17152;DHT22;8691;50.828;4.700;2023-05-16T11:44:36;19.70;64.40
17152;DHT22;8691;50.828;4.700;2023-05-16T11:47:04;19.30;66.00
17152;DHT22;8691;50.828;4.700;2023-05-16T11:49:30;19.00;67.70
17152;DHT22;8691;50.828;4.700;2023-05-16T11:51:57;18.90;70.30
17152;DHT22;8691;50.828;4.700;2023-05-16T11:54:24;19.00;71.40
17152;DHT22;8691;50.828;4.700;2023-05-16T11:56:51;19.30;69.50
17152;DHT22;8691;50.828;4.700;2023-05-16T11:59:18;19.30;68.80
17152;DHT22;8691;50.828;4.700;2023-05-16T12:01:45;19.30;71.30
17152;DHT22;8691;50.828;4.700;2023-05-16T12:04:15;19.60;68.60
17152;DHT22;8691;50.828;4.700;2023-05-16T12:06:42;19.60;68.60
17152;DHT22;8691;50.828;4.700;2023-05-16T12:09:12;19.90;67.80
17152;DHT22;8691;50.828;4.700;2023-05-16T12:11:39;19.80;67.20
17152;DHT22;8691;50.828;4.700;2023-05-16T12:14:05;19.60;65.60
17152;DHT22;8691;50.828;4.700;2023-05-16T12:16:32;19.30;67.80
17152;DHT22;8691;50.828;4.700;2023-05-16T12:18:59;19.40;67.50
17152;DHT22;8691;50.828;4.700;2023-05-16T12:21:26;19.30;68.10
17152;DHT22;8691;50.828;4.700;2023-05-16T12:23:54;19.20;70.60
17152;DHT22;8691;50.828;4.700;2023-05-16T12:26:27;19.00;70.10
17152;DHT22;8691;50.828;4.700;2023-05-16T12:28:53;18.40;71.70
17152;DHT22;8691;50.828;4.700;2023-05-16T12:31:19;18.40;72.20
17152;DHT22;8691;50.828;4.700;2023-05-16T12:33:46;18.50;70.70
17152;DHT22;8691;50.828;4.700;2023-05-16T12:36:14;18.80;71.40
17152;DHT22;8691;50.828;4.700;2023-05-16T12:38:44;18.80;72.10
17152;DHT22;8691;50.828;4.700;2023-05-16T12:41:08;18.80;72.10
17152;DHT22;8691;50.828;4.700;2023-05-16T12:43:35;18.90;73.10
17152;DHT22;8691;50.828;4.700;2023-05-16T12:46:03;19.80;71.30
17152;DHT22;8691;50.828;4.700;2023-05-16T12:48:32;19.80;71.20
17152;DHT22;8691;50.828;4.700;2023-05-16T12:51:15;19.90;69.30
17152;DHT22;8691;50.828;4.700;2023-05-16T12:53:41;19.90;69.00
17152;DHT22;8691;50.828;4.700;2023-05-16T12:56:08;20.00;67.50
17152;DHT22;8691;50.828;4.700;2023-05-16T12:58:35;20.00;67.10
17152;DHT22;8691;50.828;4.700;2023-05-16T13:01:02;19.80;67.80
17152;DHT22;8691;50.828;4.700;2023-05-16T13:03:29;19.70;65.80
17152;DHT22;8691;50.828;4.700;2023-05-16T13:05:57;19.60;67.50
17152;DHT22;8691;50.828;4.700;2023-05-16T13:08:24;19.60;67.50
17152;DHT22;8691;50.828;4.700;2023-05-16T13:10:50;19.30;67.80
17152;DHT22;8691;50.828;4.700;2023-05-16T13:13:17;19.40;70.70
17152;DHT22;8691;50.828;4.700;2023-05-16T13:15:44;19.70;71.60
17152;DHT22;8691;50.828;4.700;2023-05-16T13:18:11;20.00;68.30
17152;DHT22;8691;50.828;4.700;2023-05-16T13:20:39;19.60;68.50
17152;DHT22;8691;50.828;4.700;2023-05-16T13:23:05;19.60;68.50
17152;DHT22;8691;50.828;4.700;2023-05-16T13:25:33;19.50;67.70
17152;DHT22;8691;50.828;4.700;2023-05-16T13:27:59;19.10;68.80
17152;DHT22;8691;50.828;4.700;2023-05-16T13:30:26;18.80;70.40
17152;DHT22;8691;50.828;4.700;2023-05-16T13:32:53;18.70;70.50
17152;DHT22;8691;50.828;4.700;2023-05-16T13:35:20;18.80;71.20
17152;DHT22;8691;50.828;4.700;2023-05-16T13:37:46;18.90;70.50
17152;DHT22;8691;50.828;4.700;2023-05-16T13:40:13;18.90;69.70
17152;DHT22;8691;50.828;4.700;2023-05-16T13:42:41;18.80;69.30
17152;DHT22;8691;50.828;4.700;2023-05-16T13:45:07;18.70;70.60
17152;DHT22;8691;50.828;4.700;2023-05-16T13:47:34;18.80;71.90
17152;DHT22;8691;50.828;4.700;2023-05-16T13:50:01;19.00;70.80
17152;DHT22;8691;50.828;4.700;2023-05-16T13:52:28;19.40;71.60
17152;DHT22;8691;50.828;4.700;2023-05-16T13:54:55;19.40;71.50
17152;DHT22;8691;50.828;4.700;2023-05-16T13:57:22;19.70;69.70
17152;DHT22;8691;50.828;4.700;2023-05-16T13:59:49;19.90;69.30
17152;DHT22;8691;50.828;4.700;2023-05-16T14:02:16;19.90;68.30
17152;DHT22;8691;50.828;4.700;2023-05-16T14:04:43;19.80;71.50
17152;DHT22;8691;50.828;4.700;2023-05-16T14:07:09;19.70;70.40
17152;DHT22;8691;50.828;4.700;2023-05-16T14:09:36;19.70;70.20
17152;DHT22;8691;50.828;4.700;2023-05-16T14:12:06;19.50;71.90
17152;DHT22;8691;50.828;4.700;2023-05-16T14:14:30;19.40;72.50
17152;DHT22;8691;50.828;4.700;2023-05-16T14:16:57;19.30;72.20
17152;DHT22;8691;50.828;4.700;2023-05-16T14:19:24;19.40;72.40
17152;DHT22;8691;50.828;4.700;2023-05-16T14:21:50;19.50;74.10
17152;DHT22;8691;50.828;4.700;2023-05-16T14:24:17;19.60;71.60
17152;DHT22;8691;50.828;4.700;2023-05-16T14:26:44;19.60;74.40
17152;DHT22;8691;50.828;4.700;2023-05-16T14:29:12;20.20;67.90
17152;DHT22;8691;50.828;4.700;2023-05-16T14:31:39;20.10;67.80
17152;DHT22;8691;50.828;4.700;2023-05-16T14:34:06;19.70;68.60
17152;DHT22;8691;50.828;4.700;2023-05-16T14:36:33;19.30;70.80
17152;DHT22;8691;50.828;4.700;2023-05-16T14:39:00;19.30;70.80
17152;DHT22;8691;50.828;4.700;2023-05-16T14:41:27;18.80;73.00
17152;DHT22;8691;50.828;4.700;2023-05-16T14:43:54;19.00;71.40
17152;DHT22;8691;50.828;4.700;2023-05-16T14:46:21;18.80;72.90
17152;DHT22;8691;50.828;4.700;2023-05-16T14:48:48;18.70;73.00
17152;DHT22;8691;50.828;4.700;2023-05-16T14:51:15;18.50;74.30
17152;DHT22;8691;50.828;4.700;2023-05-16T14:53:42;18.10;76.00
17152;DHT22;8691;50.828;4.700;2023-05-16T14:56:09;17.80;77.50
17152;DHT22;8691;50.828;4.700;2023-05-16T14:58:36;17.70;77.90
17152;DHT22;8691;50.828;4.700;2023-05-16T15:01:03;17.80;78.40
17152;DHT22;8691;50.828;4.700;2023-05-16T15:03:29;18.00;79.10
17152;DHT22;8691;50.828;4.700;2023-05-16T15:05:56;18.30;77.00
17152;DHT22;8691;50.828;4.700;2023-05-16T15:08:23;18.50;77.60
17152;DHT22;8691;50.828;4.700;2023-05-16T15:10:50;18.70;76.00
17152;DHT22;8691;50.828;4.700;2023-05-16T15:13:16;18.70;73.00
17152;DHT22;8691;50.828;4.700;2023-05-16T15:15:43;18.70;73.10
17152;DHT22;8691;50.828;4.700;2023-05-16T15:18:10;18.50;75.70
17152;DHT22;8691;50.828;4.700;2023-05-16T15:20:38;18.20;73.80
17152;DHT22;8691;50.828;4.700;2023-05-16T15:23:05;18.20;73.70
17152;DHT22;8691;50.828;4.700;2023-05-16T15:25:32;18.00;74.40
17152;DHT22;8691;50.828;4.700;2023-05-16T15:27:58;18.10;74.60
17152;DHT22;8691;50.828;4.700;2023-05-16T15:30:25;18.00;75.20
17152;DHT22;8691;50.828;4.700;2023-05-16T15:32:52;18.20;74.50
17152;DHT22;8691;50.828;4.700;2023-05-16T15:35:19;18.20;73.40
17152;DHT22;8691;50.828;4.700;2023-05-16T15:37:45;18.30;73.70
17152;DHT22;8691;50.828;4.700;2023-05-16T15:40:13;17.80;76.10
17152;DHT22;8691;50.828;4.700;2023-05-16T15:42:40;17.60;77.80
17152;DHT22;8691;50.828;4.700;2023-05-16T15:45:08;17.50;77.60
17152;DHT22;8691;50.828;4.700;2023-05-16T15:47:34;17.50;77.10
17152;DHT22;8691;50.828;4.700;2023-05-16T15:50:02;17.60;78.00
17152;DHT22;8691;50.828;4.700;2023-05-16T15:52:29;17.60;77.10
17152;DHT22;8691;50.828;4.700;2023-05-16T15:54:56;17.70;76.40
17152;DHT22;8691;50.828;4.700;2023-05-16T15:57:22;17.50;76.50
17152;DHT22;8691;50.828;4.700;2023-05-16T15:59:50;17.00;79.30
17152;DHT22;8691;50.828;4.700;2023-05-16T16:02:17;17.00;78.60
17152;DHT22;8691;50.828;4.700;2023-05-16T16:04:44;16.90;79.50
17152;DHT22;8691;50.828;4.700;2023-05-16T16:07:11;16.70;80.40
17152;DHT22;8691;50.828;4.700;2023-05-16T16:09:38;16.70;80.10
17152;DHT22;8691;50.828;4.700;2023-05-16T16:12:05;16.80;79.70
17152;DHT22;8691;50.828;4.700;2023-05-16T16:14:32;16.60;81.90
17152;DHT22;8691;50.828;4.700;2023-05-16T16:16:58;16.60;80.80
17152;DHT22;8691;50.828;4.700;2023-05-16T16:19:25;16.60;81.50